CheckWX is a tool to help pilots better visualize weather data.  It is not intended as a substitute for an official pre-flight weather briefing.

08:10:44 UTC

I68 METAR
Warren County / John Lane Field Airport
Lebanon, Ohio, USA
Current

16 mins ago

KI68 230755Z AUTO 17006KT 10SM CLR 14/07 A3000 RMK AO1 T01350066
Observed
Apr-23 @ 07:55 UTC
Wind
  • 170° at 6 KTS
Visibility
10 SM
Flight Rules
VFR
Cloud Levels
  • Clear skies
Temperature
14°C / 57°F
Dewpoint
C / 45°F
Humidity
63%
Altimeter
30" Hg
Pressure
1015.92 hPa
Previous

36 mins ago

KI68 230735Z AUTO 17007KT 10SM CLR 14/07 A3000 RMK AO1 T01400066
Observed
Apr-23 @ 07:35 UTC
Wind
  • 170° at 7 KTS
Visibility
10 SM
Flight Rules
VFR
Cloud Levels
  • Clear skies
Temperature
14°C / 57°F
Dewpoint
C / 45°F
Humidity
63%
Altimeter
30" Hg
Pressure
1015.92 hPa
Previous

56 mins ago

KI68 230715Z AUTO 17007KT 10SM CLR 14/07 A3001 RMK AO1 T01350067
Observed
Apr-23 @ 07:15 UTC
Wind
  • 170° at 7 KTS
Visibility
10 SM
Flight Rules
VFR
Cloud Levels
  • Clear skies
Temperature
14°C / 57°F
Dewpoint
C / 45°F
Humidity
63%
Altimeter
30.01" Hg
Pressure
1016.22 hPa